• Join FlightAware (Why Join?)
  • Login
  • US Flag 
10:23AM EDT


 

Airport Tracker/Info


-or-


 

Live Flight TrackerFlight Track Log ✈ RPA3194 ✈ 30-Apr-2013 ✈ KCLE - KPHL

Flight Track Log - Related Links

Times and Time Zones

All times are in EDT time to prevent confusion due to time zone crossing. See the RPA3194 flight status page for this flight to view local times or setup timezone preferences in your user account.

Time Position Orientation Groundspeed Altitude Reporting Facility
EDT Latitude Longitude Course Direction KTS MPH feet Rate Location/Type
06:38PM 41.3878 -81.8839 114° Southeast 158 182 1,900  Level Cleveland Center
06:39PM 41.3542 -81.8889 186° South 168 193 3,000 1,560 Climbing Cleveland Center
06:40PM 41.1548 -81.3209 127° Southeast  Level FlightAware Approximate
06:40PM 41.3025 -81.8464 148° Southeast 266 306 4,800  Level Cleveland Center
06:41PM 41.0843 -81.1373 108° East  Level FlightAware Approximate
06:41PM 41.2744 -81.7436 110° East 273 314 7,600  Level Cleveland Center
06:42PM 41.0332 -80.9412 111° Southeast  Level FlightAware Approximate
06:42PM 41.2442 -81.6408 111° Southeast 289 333 10,100  Level Cleveland Center
06:43PM 40.9724 -80.7503 114° Southeast  Level FlightAware Approximate
06:43PM 41.2119 -81.5325 112° Southeast 299 344 11,800  Level Cleveland Center
06:44PM 41.1753 -81.4106 112° Southeast 332 382 13,800 1,980 Climbing Cleveland Center
06:45PM 41.1531 -81.2919 104° East 337 388 15,800 1,920 Climbing Cleveland Center
06:46PM 41.1372 -81.1594 99° East 356 410 17,700 1,500 Climbing Cleveland Center
06:47PM 41.1231 -81.0325 98° East 369 425 18,900 1,380 Climbing Cleveland Center
06:48PM 41.0839 -80.9053 112° Southeast 369 425 20,500 1,560 Climbing Cleveland Center
06:49PM 41.0364 -80.7758 116° Southeast 380 437 22,100 1,500 Climbing Cleveland Center
06:50PM 40.9886 -80.6436 116° Southeast 385 443 23,600 1,320 Climbing Cleveland Center
06:51PM 40.9406 -80.5117 116° Southeast 385 443 24,800 660 Climbing Cleveland Center
06:52PM 40.8925 -80.3744 115° Southeast 390 449 25,000 60 Climbing Cleveland Center
06:53PM 40.8317 -80.2153 117° Southeast 415 478 25,000  Level Cleveland Center
06:54PM 40.7811 -80.0731 115° Southeast 426 490 25,000  Level Cleveland Center
06:55PM 40.7325 -79.9447 117° Southeast 426 490 25,000  Level Cleveland Center
06:56PM 40.6817 -79.8028 115° Southeast 426 490 25,000  Level Cleveland Center
06:57PM 40.6325 -79.6667 115° Southeast 420 483 25,000  Level Cleveland Center
06:58PM 40.5814 -79.5333 117° Southeast 409 471 25,000  Level Cleveland Center
06:59PM 40.5344 -79.4056 116° Southeast 398 458 25,000  Level Cleveland Center
07:00PM 40.4786 -79.2619 117° Southeast 398 458 25,000  Level Cleveland Center
07:01PM 40.4333 -79.1428 116° Southeast 398 458 25,000  Level Cleveland Center
07:02PM 40.3836 -79.0131 117° Southeast 398 458 25,000  Level Cleveland Center
07:03PM 40.3339 -78.8808 116° Southeast 403 464 25,000  Level Cleveland Center
07:04PM 40.3169 -78.7397 99° East 390 449 25,000  Level Cleveland Center
07:05PM 40.3167 -78.5981 90° East 390 449 25,000  Level Cleveland Center
07:06PM 40.3142 -78.4539 91° East 385 443 25,000  Level Cleveland Center
07:07PM 40.3158 -78.1950 89° East 395 455 25,000  Level New York Center
07:08PM 40.3142 -78.0506 91° East 395 455 25,000  Level New York Center
07:09PM 40.3106 -77.9056 92° East 395 455 25,000  Level New York Center
07:10PM 40.2983 -77.7600 96° East 400 460 25,000  Level New York Center
07:11PM 40.2819 -77.6142 98° East 405 466 25,000 -180 Level New York Center
07:12PM 40.2672 -77.4711 98° East 405 466 24,700 -1,200 Descending New York Center
07:13PM 40.2494 -77.3417 100° East 405 466 22,700 -2,040 Descending New York Center
07:14PM 40.2322 -77.2014 99° East 394 453 20,700 -2,100 Descending New York Center
07:15PM 40.2167 -77.0667 99° East 387 445 18,600 -1,920 Descending New York Center
07:16PM 40.1992 -76.9211 99° East 371 427 17,000 -840 Descending New York Center
07:17PM 40.1828 -76.7919 99° East 363 418 17,000  Level New York Center
07:18PM 40.1683 -76.6656 98° East 353 406 17,000 -300 Level New York Center
07:19PM 40.1531 -76.5528 100° East 353 406 16,500 -960 Descending New York Center
07:20PM 40.1364 -76.4267 100° East 353 406 15,200 -1,440 Descending New York Center
07:21PM 40.1200 -76.2894 99° East 353 406 13,700 -1,380 Descending New York Center
07:22PM 40.1131 -76.1694 94° East 348 400 12,500 -1,260 Descending New York Center
07:23PM 40.1050 -76.0683 96° East 327 376 11,300 -1,260 Descending New York Center
07:24PM 40.0956 -75.9536 96° East 317 365 10,100 -1,200 Descending New York Center
07:25PM 40.0858 -75.8417 96° East 289 333 8,900 -1,080 Descending New York Center
07:26PM 40.0811 -75.7544 94° East 261 300 8,000 -480 Descending New York Center
07:27PM 40.1169 -75.6975 51° Northeast 194 223 8,000 -420 Level New York Center
07:28PM 40.1742 -75.6717 19° North 200 230 7,200 -960 Descending New York Center
07:29PM 40.1900 -75.5967 75° East 196 226 6,100 -1,080 Descending New York Center
07:30PM 40.1742 -75.5247 106° East 196 226 5,100 -1,260 Descending New York Center
07:31PM 40.1581 -75.4586 108° East 201 231 3,600 -1,080 Descending New York Center
07:32PM 40.1247 -75.4047 129° Southeast 196 226 3,000 -360 Descending New York Center
07:33PM 40.0892 -75.3536 132° Southeast 191 220 3,000  Level New York Center
07:34PM 40.0667 -75.3167 129° Southeast 195 224 3,000 -300 Level Philadelphia TRACON
07:35PM 40.0000 -75.3000 169° South 188 216 2,500 -780 Descending Philadelphia TRACON
07:36PM 39.9500 -75.2667 153° Southeast 175 201 1,400 -1,020 Descending Philadelphia TRACON